createdAt,value
2023-06-29T00:01:30.930Z,13.02
2023-06-29T00:03:33.234Z,13.25
2023-06-29T00:05:36.756Z,16.25
2023-06-29T00:07:38.331Z,16.38
2023-06-29T00:09:40.449Z,16.20
2023-06-29T00:11:41.961Z,14.70
2023-06-29T00:13:43.531Z,14.85
2023-06-29T00:15:45.766Z,14.45
2023-06-29T00:17:48.514Z,14.73
2023-06-29T00:19:50.289Z,13.15
2023-06-29T00:21:51.896Z,12.55
2023-06-29T00:23:54.654Z,14.40
2023-06-29T00:25:57.510Z,16.42
2023-06-29T00:27:59.559Z,12.00
2023-06-29T00:30:01.196Z,14.27
2023-06-29T00:32:02.780Z,16.38
2023-06-29T00:34:04.335Z,15.63
2023-06-29T00:36:06.085Z,11.98
2023-06-29T00:38:07.563Z,15.90
2023-06-29T00:40:10.563Z,15.43
2023-06-29T00:42:12.105Z,15.40
2023-06-29T00:44:13.596Z,12.75
2023-06-29T00:46:19.406Z,14.25
2023-06-29T00:48:20.989Z,13.05
2023-06-29T00:50:22.952Z,15.05
2023-06-29T00:52:24.816Z,13.95
2023-06-29T00:54:26.605Z,11.80
2023-06-29T00:56:31.903Z,16.73
2023-06-29T00:58:33.451Z,15.52
2023-06-29T01:00:35.242Z,13.13
2023-06-29T01:02:41.233Z,14.70
2023-06-29T01:04:47.010Z,17.90
2023-06-29T01:06:56.042Z,15.32
2023-06-29T01:09:07.037Z,14.45
2023-06-29T01:11:09.332Z,16.23
2023-06-29T01:13:11.300Z,15.85
2023-06-29T01:15:12.958Z,16.02
2023-06-29T01:17:18.834Z,16.25
2023-06-29T01:19:24.621Z,16.05
2023-06-29T01:21:26.977Z,17.95
2023-06-29T01:23:37.463Z,14.25
2023-06-29T01:25:39.265Z,15.40
2023-06-29T01:27:44.705Z,16.55
2023-06-29T01:29:46.323Z,14.57
2023-06-29T01:31:48.315Z,17.83
2023-06-29T01:33:49.927Z,12.80
2023-06-29T01:36:01.298Z,13.88
2023-06-29T01:38:13.801Z,13.70
2023-06-29T01:40:19.808Z,15.50
2023-06-29T01:42:22.426Z,15.35
2023-06-29T01:44:24.191Z,13.90
2023-06-29T01:46:26.385Z,17.95
2023-06-29T01:48:28.469Z,20.92
2023-06-29T01:50:30.884Z,14.23
2023-06-29T01:52:32.606Z,17.90
2023-06-29T01:54:34.274Z,18.50
2023-06-29T01:56:35.831Z,15.27
2023-06-29T01:58:37.344Z,21.13
2023-06-29T02:00:38.976Z,14.75
2023-06-29T02:02:40.892Z,15.32
2023-06-29T02:04:42.426Z,16.60
2023-06-29T02:06:43.908Z,12.32
2023-06-29T02:08:46.012Z,17.58
2023-06-29T02:10:47.520Z,16.45
2023-06-29T02:12:49.033Z,18.73
2023-06-29T02:14:50.547Z,17.85
2023-06-29T02:16:52.701Z,13.95
2023-06-29T02:18:54.219Z,17.63
2023-06-29T02:20:55.716Z,15.50
2023-06-29T02:22:57.237Z,15.38
2023-06-29T02:24:58.744Z,16.15
2023-06-29T02:27:00.256Z,15.65
2023-06-29T02:29:01.739Z,13.57
2023-06-29T02:31:03.265Z,16.42
2023-06-29T02:33:04.834Z,16.17
2023-06-29T02:35:07.275Z,14.15
2023-06-29T02:37:08.786Z,16.98
2023-06-29T02:39:10.389Z,17.55
2023-06-29T02:41:11.875Z,13.85
2023-06-29T02:43:13.480Z,12.50
2023-06-29T02:45:15.070Z,15.27
2023-06-29T02:47:16.548Z,15.20
2023-06-29T02:49:18.188Z,15.65
2023-06-29T02:51:19.660Z,12.23
2023-06-29T02:53:21.132Z,16.52
2023-06-29T02:55:24.268Z,11.98
2023-06-29T02:57:25.783Z,13.02
2023-06-29T02:59:27.314Z,17.30
2023-06-29T03:01:29.004Z,12.73
2023-06-29T03:03:30.576Z,15.23
2023-06-29T03:05:32.099Z,11.82
2023-06-29T03:07:34.296Z,15.30
2023-06-29T03:09:35.889Z,16.83
2023-06-29T03:11:37.375Z,14.05
2023-06-29T03:13:38.880Z,16.23
2023-06-29T03:15:40.390Z,13.50
2023-06-29T03:17:42.057Z,12.63
2023-06-29T03:19:43.776Z,17.95
2023-06-29T03:21:45.266Z,22.40
2023-06-29T03:23:47.301Z,12.25
2023-06-29T03:25:49.408Z,18.25
2023-06-29T03:27:50.981Z,20.33
2023-06-29T03:29:53.559Z,16.20
2023-06-29T03:31:55.036Z,13.73
2023-06-29T03:33:59.385Z,19.02
2023-06-29T03:36:00.910Z,15.90
2023-06-29T03:38:08.329Z,16.63
2023-06-29T03:40:10.370Z,15.07
2023-06-29T03:42:12.001Z,16.55
2023-06-29T03:44:13.591Z,17.02
2023-06-29T03:46:15.132Z,17.38
2023-06-29T03:48:16.685Z,16.17
2023-06-29T03:50:18.716Z,14.80
2023-06-29T03:52:21.429Z,16.10
2023-06-29T03:54:22.997Z,15.38
2023-06-29T03:56:24.594Z,18.73
2023-06-29T03:58:26.203Z,14.05
2023-06-29T04:00:27.856Z,18.40
2023-06-29T04:02:29.650Z,17.70
2023-06-29T04:04:31.299Z,14.45
2023-06-29T04:06:32.857Z,18.88
2023-06-29T04:08:34.645Z,20.23
2023-06-29T04:10:36.454Z,14.82
2023-06-29T04:12:38.017Z,14.05
2023-06-29T04:14:39.580Z,14.95
2023-06-29T04:16:41.159Z,14.27
2023-06-29T04:18:42.735Z,19.92
2023-06-29T04:20:44.241Z,18.25
2023-06-29T04:22:45.743Z,14.25
2023-06-29T04:24:47.338Z,12.95
2023-06-29T04:26:48.842Z,15.90
2023-06-29T04:28:50.395Z,16.60
2023-06-29T04:30:51.954Z,13.68
2023-06-29T04:32:53.621Z,14.07
2023-06-29T04:34:55.293Z,18.00
2023-06-29T04:36:57.696Z,17.77
2023-06-29T04:38:59.994Z,17.20
2023-06-29T04:41:05.141Z,15.30
2023-06-29T04:43:09.883Z,19.45
2023-06-29T04:45:13.754Z,16.98
2023-06-29T04:47:15.457Z,14.65
2023-06-29T04:49:16.966Z,16.23
2023-06-29T04:51:19.657Z,22.67
2023-06-29T04:53:21.241Z,17.35
2023-06-29T04:55:23.926Z,19.83
2023-06-29T04:57:27.424Z,15.00
2023-06-29T04:59:30.996Z,19.55
2023-06-29T05:01:32.519Z,14.85
2023-06-29T05:03:34.412Z,14.18
2023-06-29T05:05:35.919Z,15.73
2023-06-29T05:07:39.105Z,18.52
2023-06-29T05:09:40.890Z,18.10
2023-06-29T05:11:42.849Z,15.60
2023-06-29T05:13:44.354Z,19.48
2023-06-29T05:15:48.931Z,20.65
2023-06-29T05:17:50.549Z,16.73
2023-06-29T05:19:52.128Z,19.23
2023-06-29T05:21:53.733Z,19.48
2023-06-29T05:23:55.697Z,16.85
2023-06-29T05:25:57.280Z,18.05
2023-06-29T05:27:58.806Z,17.23
2023-06-29T05:30:00.371Z,18.70
2023-06-29T05:32:01.964Z,21.40
2023-06-29T05:34:03.448Z,13.35
2023-06-29T05:36:05.128Z,21.50
2023-06-29T05:38:06.724Z,18.70
2023-06-29T05:40:09.518Z,16.15
2023-06-29T05:42:11.095Z,19.27
2023-06-29T05:44:12.603Z,14.52
2023-06-29T05:46:14.122Z,18.42
2023-06-29T05:48:15.788Z,22.40
2023-06-29T05:50:17.507Z,20.17
2023-06-29T05:52:19.025Z,20.63
2023-06-29T05:54:20.548Z,24.10
2023-06-29T05:56:22.037Z,21.13
2023-06-29T05:58:25.115Z,13.18
2023-06-29T06:00:26.857Z,21.08
2023-06-29T06:02:28.525Z,23.00
2023-06-29T06:04:30.068Z,22.13
2023-06-29T06:06:31.927Z,20.00
2023-06-29T06:08:34.151Z,17.45
2023-06-29T06:10:36.018Z,18.25
2023-06-29T06:12:37.564Z,21.80
2023-06-29T06:14:39.298Z,15.00
2023-06-29T06:16:40.940Z,18.45
2023-06-29T06:18:42.486Z,20.38
2023-06-29T06:20:44.176Z,17.00
2023-06-29T06:22:45.812Z,22.33
2023-06-29T06:24:47.327Z,21.60
2023-06-29T06:26:48.824Z,24.75
2023-06-29T06:28:52.138Z,17.85
2023-06-29T06:30:55.037Z,16.65
2023-06-29T06:32:56.730Z,19.25
2023-06-29T06:34:58.484Z,22.38
2023-06-29T06:37:00.061Z,18.48
2023-06-29T06:39:01.598Z,17.88
2023-06-29T06:41:03.133Z,19.75
2023-06-29T06:43:04.969Z,20.80
2023-06-29T06:45:07.533Z,16.98
2023-06-29T06:47:09.075Z,16.65
2023-06-29T06:49:10.559Z,20.33
2023-06-29T06:51:12.049Z,19.33
2023-06-29T06:53:13.639Z,18.30
2023-06-29T06:55:15.183Z,26.48
2023-06-29T06:57:16.713Z,22.02
2023-06-29T06:59:18.211Z,19.00
2023-06-29T07:01:23.564Z,16.55
2023-06-29T07:03:27.195Z,17.25
2023-06-29T07:05:28.814Z,21.77
2023-06-29T07:07:30.394Z,17.95
2023-06-29T07:09:31.966Z,19.40
2023-06-29T07:11:33.550Z,26.92
2023-06-29T07:13:35.035Z,19.52
2023-06-29T07:15:36.566Z,18.35
2023-06-29T07:17:38.083Z,20.58
2023-06-29T07:24:08.082Z,17.58
2023-06-29T07:26:10.162Z,19.83
2023-06-29T07:28:11.680Z,18.42
2023-06-29T07:30:13.778Z,19.13
2023-06-29T07:32:15.290Z,14.60
2023-06-29T07:34:16.880Z,19.50
2023-06-29T07:36:18.396Z,25.52
2023-06-29T07:38:19.963Z,18.23
2023-06-29T07:40:21.491Z,20.35
2023-06-29T07:42:38.142Z,26.48
2023-06-29T07:44:41.376Z,17.83
2023-06-29T07:46:42.855Z,18.90
2023-06-29T07:48:44.428Z,15.88
2023-06-29T07:50:46.029Z,19.02
2023-06-29T07:52:47.879Z,18.52
2023-06-29T07:54:50.538Z,18.02
2023-06-29T07:58:56.496Z,18.13
2023-06-29T08:00:58.260Z,17.90
2023-06-29T08:02:59.809Z,23.80
2023-06-29T08:07:10.069Z,16.92
2023-06-29T08:09:12.357Z,23.20
2023-06-29T08:11:15.196Z,17.40
2023-06-29T08:13:17.306Z,21.88
2023-06-29T08:15:18.817Z,20.00
2023-06-29T08:17:20.535Z,20.25
2023-06-29T08:19:22.319Z,20.52
2023-06-29T08:21:23.952Z,18.13
2023-06-29T08:23:25.509Z,20.63
2023-06-29T08:25:27.062Z,21.25
2023-06-29T08:27:28.553Z,24.60
2023-06-29T08:29:30.035Z,17.67
2023-06-29T08:31:31.632Z,19.38
2023-06-29T08:33:33.249Z,18.98
2023-06-29T08:35:34.939Z,16.60
2023-06-29T08:37:36.526Z,15.18
2023-06-29T08:39:39.614Z,17.52
2023-06-29T08:41:41.097Z,20.35
2023-06-29T08:43:43.102Z,15.13
2023-06-29T08:45:46.276Z,16.48
2023-06-29T08:47:53.026Z,18.15
2023-06-29T08:49:58.016Z,16.17
2023-06-29T08:52:00.810Z,19.90
2023-06-29T08:54:02.991Z,16.35
2023-06-29T08:56:04.967Z,21.58
2023-06-29T08:58:07.013Z,16.73
2023-06-29T09:00:09.832Z,15.05
2023-06-29T09:02:11.837Z,13.82
2023-06-29T09:04:13.545Z,13.82
2023-06-29T09:06:16.244Z,19.40
2023-06-29T09:08:18.469Z,17.08
2023-06-29T09:10:20.054Z,16.33
2023-06-29T09:12:21.595Z,17.70
2023-06-29T09:14:23.870Z,16.67
2023-06-29T09:16:30.078Z,19.67
2023-06-29T09:18:33.675Z,19.50
2023-06-29T09:20:36.187Z,18.75
2023-06-29T09:22:40.444Z,17.45
2023-06-29T09:24:57.367Z,20.38
2023-06-29T09:27:03.996Z,19.85
2023-06-29T09:29:05.605Z,19.85
2023-06-29T09:31:09.792Z,19.67
2023-06-29T09:33:12.849Z,19.85
2023-06-29T09:35:14.461Z,28.77
2023-06-29T09:37:17.243Z,20.15
2023-06-29T09:39:19.702Z,17.98
2023-06-29T09:41:21.241Z,24.40
2023-06-29T09:43:27.609Z,18.77
2023-06-29T09:45:31.699Z,20.88
2023-06-29T09:49:51.443Z,20.88
2023-06-29T09:52:04.067Z,15.05
2023-06-29T09:54:05.770Z,20.17
2023-06-29T09:56:07.906Z,19.05
2023-06-29T09:58:09.677Z,16.58
2023-06-29T10:00:12.833Z,20.52
2023-06-29T10:02:15.141Z,22.40
2023-06-29T10:04:16.661Z,14.65
2023-06-29T10:06:22.836Z,19.48
2023-06-29T10:08:28.272Z,16.88
2023-06-29T10:10:34.372Z,18.33
2023-06-29T10:12:35.945Z,16.48
2023-06-29T10:14:43.193Z,17.67
2023-06-29T10:16:50.183Z,16.02
2023-06-29T10:18:55.437Z,18.27
2023-06-29T10:20:57.410Z,25.85
2023-06-29T10:23:02.274Z,16.48
2023-06-29T10:25:08.966Z,17.45
2023-06-29T10:27:11.616Z,19.90
2023-06-29T10:29:13.213Z,20.88
2023-06-29T10:31:20.144Z,19.58
2023-06-29T10:33:23.379Z,20.92
2023-06-29T10:35:27.124Z,17.30
2023-06-29T10:37:32.819Z,16.75
2023-06-29T10:39:45.277Z,19.05
2023-06-29T10:41:48.733Z,23.92
2023-06-29T10:44:01.520Z,21.70
2023-06-29T10:46:03.204Z,19.50
2023-06-29T10:48:07.050Z,17.88
2023-06-29T10:50:29.532Z,21.75
2023-06-29T10:52:33.180Z,22.15
2023-06-29T10:54:34.871Z,22.63
2023-06-29T10:56:36.398Z,24.70
2023-06-29T10:58:38.778Z,16.70
2023-06-29T11:00:41.107Z,16.80
2023-06-29T11:02:43.217Z,19.17
2023-06-29T11:04:45.120Z,21.23
2023-06-29T11:06:46.737Z,19.42
2023-06-29T11:08:48.902Z,20.20
2023-06-29T11:10:54.255Z,19.75
2023-06-29T11:12:56.259Z,23.52
2023-06-29T11:15:18.251Z,28.00
2023-06-29T11:17:20.206Z,21.27
2023-06-29T11:19:27.181Z,18.67
2023-06-29T11:21:28.767Z,26.05
2023-06-29T11:23:30.331Z,26.40
2023-06-29T11:25:31.951Z,21.83
2023-06-29T11:27:33.676Z,22.55
2023-06-29T11:29:35.333Z,19.40
2023-06-29T11:31:37.079Z,17.55
2023-06-29T11:33:50.784Z,18.92
2023-06-29T11:35:52.344Z,24.73
2023-06-29T11:38:01.744Z,27.92
2023-06-29T11:40:08.966Z,23.35
2023-06-29T11:42:10.820Z,21.55
2023-06-29T11:44:15.040Z,22.52
2023-06-29T11:46:18.646Z,24.55
2023-06-29T11:48:20.589Z,25.10
2023-06-29T11:50:23.982Z,24.77
2023-06-29T11:52:26.134Z,20.08
2023-06-29T11:54:30.744Z,27.80
2023-06-29T11:56:39.837Z,23.48
2023-06-29T11:58:44.214Z,24.55
2023-06-29T12:00:45.802Z,21.30
2023-06-29T12:02:47.727Z,21.67
2023-06-29T12:04:56.519Z,24.52
2023-06-29T12:06:58.963Z,23.92
2023-06-29T12:09:00.640Z,23.55
2023-06-29T12:11:04.692Z,23.92
2023-06-29T12:13:09.930Z,24.70
2023-06-29T12:15:16.375Z,21.40
2023-06-29T12:19:51.460Z,32.83
2023-06-29T12:22:12.518Z,25.35
2023-06-29T12:24:17.762Z,25.60
2023-06-29T12:26:20.481Z,25.52
2023-06-29T12:28:22.999Z,22.77
2023-06-29T12:30:24.608Z,26.38
2023-06-29T12:32:26.123Z,25.33
2023-06-29T12:34:30.013Z,26.42
2023-06-29T12:36:31.568Z,23.48
2023-06-29T12:38:33.054Z,21.65
2023-06-29T12:40:35.020Z,25.60
2023-06-29T12:42:38.709Z,22.13
2023-06-29T12:44:40.552Z,21.80
2023-06-29T12:46:42.090Z,23.35
2023-06-29T12:48:46.670Z,24.02
2023-06-29T12:50:48.561Z,22.40
2023-06-29T12:52:50.402Z,24.98
2023-06-29T12:54:53.423Z,19.95
2023-06-29T12:56:55.011Z,18.02
2023-06-29T12:58:56.552Z,25.42
2023-06-29T13:00:58.202Z,22.02
2023-06-29T13:03:00.219Z,19.63
2023-06-29T13:05:02.466Z,21.58
2023-06-29T13:07:04.156Z,20.88
2023-06-29T13:09:05.761Z,17.60
2023-06-29T13:11:07.553Z,19.48
2023-06-29T13:13:09.139Z,21.92
2023-06-29T13:15:11.336Z,22.55
2023-06-29T13:17:13.290Z,19.77
2023-06-29T13:19:14.958Z,21.40
2023-06-29T13:21:17.096Z,22.80
2023-06-29T13:23:18.723Z,17.15
2023-06-29T13:25:22.282Z,18.38
2023-06-29T13:27:23.784Z,20.85
2023-06-29T13:29:25.645Z,19.15
2023-06-29T13:31:27.390Z,18.90
2023-06-29T13:33:29.017Z,16.90
2023-06-29T13:35:30.566Z,15.98
2023-06-29T13:37:32.154Z,16.95
2023-06-29T13:39:34.266Z,16.35
2023-06-29T13:41:37.125Z,20.45
2023-06-29T13:43:38.645Z,18.73
2023-06-29T13:45:40.217Z,16.80
2023-06-29T13:47:43.876Z,18.17
2023-06-29T13:49:45.994Z,18.23
2023-06-29T13:51:49.401Z,18.00
2023-06-29T13:53:51.310Z,17.05
2023-06-29T13:55:52.836Z,17.73
2023-06-29T13:57:54.362Z,19.15
2023-06-29T13:59:55.886Z,16.92
2023-06-29T14:01:57.722Z,16.65
2023-06-29T14:04:02.066Z,21.35
2023-06-29T14:06:03.927Z,16.73
2023-06-29T14:08:05.782Z,15.68
2023-06-29T14:10:07.788Z,17.40
2023-06-29T14:12:09.640Z,17.42
2023-06-29T14:14:11.321Z,18.83
2023-06-29T14:16:12.886Z,18.13
2023-06-29T14:18:14.593Z,19.05
2023-06-29T14:20:16.271Z,18.60
2023-06-29T14:22:17.798Z,22.40
2023-06-29T14:24:19.441Z,18.77
2023-06-29T14:26:22.171Z,19.85
2023-06-29T14:28:23.714Z,24.67
2023-06-29T14:30:25.237Z,18.00
2023-06-29T14:32:26.896Z,24.98
2023-06-29T14:34:28.503Z,18.58
2023-06-29T14:36:30.084Z,18.52
2023-06-29T14:38:32.016Z,23.90
2023-06-29T14:40:33.554Z,21.67
2023-06-29T14:42:35.166Z,22.85
2023-06-29T14:44:36.889Z,22.27
2023-06-29T14:46:38.550Z,22.35
2023-06-29T14:48:40.056Z,25.38
2023-06-29T14:50:41.605Z,20.38
2023-06-29T14:52:43.128Z,21.67
2023-06-29T14:54:44.639Z,21.75
2023-06-29T14:56:46.291Z,23.77
2023-06-29T14:58:47.860Z,25.15
2023-06-29T15:00:49.552Z,21.48
2023-06-29T15:02:51.166Z,25.23
2023-06-29T15:04:53.145Z,23.73
2023-06-29T15:06:54.781Z,20.70
2023-06-29T15:08:56.554Z,26.95
2023-06-29T15:10:58.098Z,25.92
2023-06-29T15:12:59.677Z,21.05
2023-06-29T15:15:02.845Z,23.23
2023-06-29T15:17:04.681Z,24.20
2023-06-29T15:19:06.233Z,22.05
2023-06-29T15:21:07.841Z,30.92
2023-06-29T15:23:09.483Z,20.85
2023-06-29T15:25:11.318Z,24.40
2023-06-29T15:27:12.856Z,22.20
2023-06-29T15:29:14.363Z,26.50
2023-06-29T15:31:16.194Z,18.45
2023-06-29T15:33:18.750Z,19.70
2023-06-29T15:35:20.379Z,19.88
2023-06-29T15:37:22.129Z,27.50
2023-06-29T15:39:23.731Z,23.20
2023-06-29T15:41:25.353Z,17.45
2023-06-29T15:43:27.536Z,16.75
2023-06-29T15:45:29.204Z,18.38
2023-06-29T15:47:30.887Z,15.13
2023-06-29T15:49:32.549Z,17.38
2023-06-29T15:51:34.075Z,15.65
2023-06-29T15:53:35.589Z,20.45
2023-06-29T15:55:37.140Z,20.65
2023-06-29T15:57:38.683Z,16.23
2023-06-29T15:59:40.224Z,20.08
2023-06-29T16:01:41.762Z,14.25
2023-06-29T16:03:43.494Z,12.98
2023-06-29T16:05:45.632Z,16.27
2023-06-29T16:07:47.917Z,16.33
2023-06-29T16:09:49.515Z,17.17
2023-06-29T16:11:51.082Z,18.70
2023-06-29T16:13:52.695Z,16.95
2023-06-29T16:15:54.260Z,15.80
2023-06-29T16:17:55.778Z,16.58
2023-06-29T16:19:57.692Z,17.02
2023-06-29T16:21:59.217Z,18.27
2023-06-29T16:24:00.703Z,16.48
2023-06-29T16:26:02.255Z,17.55
2023-06-29T16:28:03.876Z,21.55
2023-06-29T16:30:06.331Z,19.08
2023-06-29T16:32:08.325Z,17.63
2023-06-29T16:34:10.004Z,19.02
2023-06-29T16:36:11.676Z,18.38
2023-06-29T16:38:13.218Z,18.63
2023-06-29T16:40:14.811Z,19.35
2023-06-29T16:42:16.450Z,17.95
2023-06-29T16:44:18.002Z,19.17
2023-06-29T16:46:19.545Z,20.02
2023-06-29T16:48:21.071Z,21.13
2023-06-29T16:50:23.429Z,16.92
2023-06-29T16:52:24.932Z,19.10
2023-06-29T16:54:26.498Z,19.83
2023-06-29T16:56:29.550Z,20.40
2023-06-29T16:58:31.140Z,18.23
2023-06-29T17:00:32.685Z,23.23
2023-06-29T17:02:34.302Z,18.67
2023-06-29T17:04:35.858Z,19.98
2023-06-29T17:06:37.398Z,18.20
2023-06-29T17:08:40.975Z,18.90
2023-06-29T17:10:42.651Z,19.38
2023-06-29T17:12:44.316Z,19.33
2023-06-29T17:14:45.889Z,22.17
2023-06-29T17:16:47.564Z,16.92
2023-06-29T17:18:49.159Z,19.02
2023-06-29T17:20:50.779Z,18.27
2023-06-29T17:22:52.498Z,21.33
2023-06-29T17:24:54.582Z,18.45
2023-06-29T17:26:56.255Z,18.30
2023-06-29T17:28:58.256Z,18.67
2023-06-29T17:30:59.985Z,22.73
2023-06-29T17:33:01.531Z,22.10
2023-06-29T17:35:03.524Z,18.88
2023-06-29T17:37:05.341Z,21.48
2023-06-29T17:39:06.829Z,19.88
2023-06-29T17:41:09.686Z,16.48
2023-06-29T17:43:11.914Z,21.95
2023-06-29T17:45:13.474Z,19.58
2023-06-29T17:47:15.201Z,19.52
2023-06-29T17:49:16.714Z,19.50
2023-06-29T17:51:19.977Z,19.63
2023-06-29T17:53:21.821Z,22.05
2023-06-29T17:55:23.382Z,23.45
2023-06-29T17:57:24.877Z,22.05
2023-06-29T17:59:26.507Z,20.27
2023-06-29T18:01:28.161Z,20.88
2023-06-29T18:03:29.982Z,21.70
2023-06-29T18:05:31.603Z,20.23
2023-06-29T18:07:33.278Z,18.52
2023-06-29T18:09:34.819Z,22.25
2023-06-29T18:11:36.364Z,18.60
2023-06-29T18:13:37.935Z,22.13
2023-06-29T18:15:39.645Z,20.48
2023-06-29T18:17:41.182Z,24.88
2023-06-29T18:19:42.724Z,20.98
2023-06-29T18:21:45.919Z,21.10
2023-06-29T18:23:47.444Z,22.48
2023-06-29T18:25:49.016Z,22.60
2023-06-29T18:27:50.626Z,25.00
2023-06-29T18:29:52.417Z,22.60
2023-06-29T18:31:54.431Z,23.17
2023-06-29T18:33:57.154Z,22.70
2023-06-29T18:35:58.726Z,22.48
2023-06-29T18:38:00.538Z,22.08
2023-06-29T18:40:02.067Z,22.58
2023-06-29T18:42:03.762Z,25.60
2023-06-29T18:44:06.078Z,23.58
2023-06-29T18:46:07.706Z,21.67
2023-06-29T18:48:09.398Z,22.42
2023-06-29T18:50:11.372Z,22.52
2023-06-29T18:52:13.313Z,24.73
2023-06-29T18:54:14.818Z,24.83
2023-06-29T18:56:16.360Z,24.38
2023-06-29T18:58:17.843Z,21.60
2023-06-29T19:00:19.465Z,23.65
2023-06-29T19:02:20.963Z,21.33
2023-06-29T19:04:22.438Z,24.45
2023-06-29T19:06:24.260Z,21.58
2023-06-29T19:08:26.195Z,18.73
2023-06-29T19:10:30.097Z,22.33
2023-06-29T19:12:31.993Z,24.77
2023-06-29T19:14:33.650Z,20.23
2023-06-29T19:16:35.897Z,20.75
2023-06-29T19:18:37.464Z,24.63
2023-06-29T19:20:38.993Z,22.77
2023-06-29T19:22:40.562Z,25.05
2023-06-29T19:24:42.156Z,25.52
2023-06-29T19:26:43.849Z,25.33
2023-06-29T19:28:45.566Z,26.42
2023-06-29T19:30:47.233Z,23.00
2023-06-29T19:32:48.786Z,33.33
2023-06-29T19:34:51.515Z,24.83
2023-06-29T19:36:53.135Z,25.60
2023-06-29T19:38:54.650Z,24.92
2023-06-29T19:40:56.600Z,24.55
2023-06-29T19:42:58.714Z,25.20
2023-06-29T19:45:00.289Z,22.13
2023-06-29T19:47:01.934Z,25.25
2023-06-29T19:49:03.887Z,28.88
2023-06-29T19:51:05.571Z,25.15
2023-06-29T19:53:07.407Z,25.52
2023-06-29T19:55:10.915Z,28.98
2023-06-29T19:57:13.293Z,26.92
2023-06-29T19:59:14.982Z,25.42
2023-06-29T20:01:16.617Z,26.55
2023-06-29T20:03:19.383Z,28.85
2023-06-29T20:05:21.613Z,30.27
2023-06-29T20:07:23.343Z,27.65
2023-06-29T20:09:25.149Z,27.23
2023-06-29T20:11:28.763Z,29.20
2023-06-29T20:13:30.316Z,28.88
2023-06-29T20:15:32.014Z,27.70
2023-06-29T20:17:35.682Z,26.30
2023-06-29T20:19:37.297Z,30.48
2023-06-29T20:21:38.829Z,26.75
2023-06-29T20:23:40.321Z,31.55
2023-06-29T20:25:41.843Z,29.45
2023-06-29T20:27:44.907Z,25.83
2023-06-29T20:29:49.750Z,30.60
2023-06-29T20:31:51.397Z,26.63
2023-06-29T20:33:53.366Z,27.25
2023-06-29T20:35:54.962Z,27.52
2023-06-29T20:37:56.468Z,26.50
2023-06-29T20:39:57.973Z,26.77
2023-06-29T20:41:59.903Z,30.35
2023-06-29T20:44:01.441Z,31.63
2023-06-29T20:46:03.058Z,27.95
2023-06-29T20:48:05.164Z,29.70
2023-06-29T20:50:07.314Z,33.22
2023-06-29T20:52:08.841Z,28.98
2023-06-29T20:54:10.427Z,31.27
2023-06-29T20:56:11.954Z,30.25
2023-06-29T20:58:13.585Z,30.67
2023-06-29T21:00:15.637Z,30.35
2023-06-29T21:02:18.587Z,30.80
2023-06-29T21:04:20.377Z,38.35
2023-06-29T21:06:22.135Z,31.25
2023-06-29T21:08:23.627Z,32.13
2023-06-29T21:10:25.196Z,36.05
2023-06-29T21:12:27.301Z,39.40
2023-06-29T21:14:28.993Z,37.35
2023-06-29T21:16:31.036Z,32.45
2023-06-29T21:18:32.918Z,37.35
2023-06-29T21:20:35.743Z,34.70
2023-06-29T21:22:37.774Z,36.72
2023-06-29T21:24:39.604Z,31.67
2023-06-29T21:26:41.234Z,34.78
2023-06-29T21:28:43.521Z,38.58
2023-06-29T21:30:45.315Z,33.65
2023-06-29T21:32:47.196Z,37.53
2023-06-29T21:34:48.969Z,34.03
2023-06-29T21:36:50.679Z,31.40
2023-06-29T21:38:52.319Z,34.97
2023-06-29T21:40:53.893Z,34.30
2023-06-29T21:42:55.473Z,33.47
2023-06-29T21:44:56.973Z,38.63
2023-06-29T21:47:01.297Z,34.88
2023-06-29T21:49:02.992Z,32.53
2023-06-29T21:51:04.493Z,34.25
2023-06-29T21:53:05.986Z,37.03
2023-06-29T21:55:07.922Z,35.55
2023-06-29T21:57:09.458Z,32.80
2023-06-29T21:59:11.008Z,38.35
2023-06-29T22:01:12.631Z,32.63
2023-06-29T22:03:14.279Z,32.67
2023-06-29T22:05:16.087Z,31.23
2023-06-29T22:07:17.772Z,34.33
2023-06-29T22:09:19.716Z,29.38
2023-06-29T22:11:22.172Z,31.75
2023-06-29T22:13:24.372Z,21.88
2023-06-29T22:15:25.891Z,20.77
2023-06-29T22:17:27.935Z,18.85
2023-06-29T22:19:29.686Z,19.25
2023-06-29T22:21:31.480Z,18.30
2023-06-29T22:23:33.274Z,14.18
2023-06-29T22:25:34.775Z,13.98
2023-06-29T22:27:37.138Z,5.97
2023-06-29T22:29:38.646Z,5.05
2023-06-29T22:31:40.182Z,5.60
2023-06-29T22:33:41.711Z,4.18
2023-06-29T22:35:43.511Z,3.53
2023-06-29T22:37:45.304Z,5.05
2023-06-29T22:39:49.662Z,3.05
2023-06-29T22:41:51.170Z,4.30
2023-06-29T22:43:58.449Z,4.50
2023-06-29T22:46:00.086Z,2.45
2023-06-29T22:48:03.261Z,4.25
2023-06-29T22:50:05.717Z,5.28
2023-06-29T22:52:07.441Z,10.60
2023-06-29T22:54:10.075Z,5.13
2023-06-29T22:56:11.643Z,4.40
2023-06-29T22:58:20.905Z,3.85
2023-06-29T23:00:22.928Z,4.20
2023-06-29T23:02:24.531Z,7.72
2023-06-29T23:04:26.111Z,6.82
2023-06-29T23:06:29.298Z,11.18
2023-06-29T23:08:31.105Z,10.15
2023-06-29T23:10:32.580Z,16.13
2023-06-29T23:12:34.063Z,22.35
2023-06-29T23:14:36.317Z,21.48
2023-06-29T23:16:37.851Z,38.28
2023-06-29T23:18:39.598Z,41.50
2023-06-29T23:20:47.660Z,46.88
2023-06-29T23:22:49.273Z,45.55
2023-06-29T23:24:53.788Z,41.20
2023-06-29T23:26:55.666Z,48.80
2023-06-29T23:28:57.141Z,41.33
2023-06-29T23:30:58.795Z,39.55
2023-06-29T23:33:00.402Z,36.47
2023-06-29T23:35:01.935Z,35.78
2023-06-29T23:37:03.542Z,31.98
2023-06-29T23:39:06.741Z,35.03
2023-06-29T23:41:08.355Z,32.90
2023-06-29T23:43:09.977Z,33.25
2023-06-29T23:45:12.511Z,30.27
2023-06-29T23:47:14.255Z,26.90
2023-06-29T23:49:18.143Z,25.25
2023-06-29T23:51:19.684Z,22.85
2023-06-29T23:53:21.172Z,17.58
2023-06-29T23:55:23.344Z,20.48
2023-06-29T23:57:24.874Z,18.63
2023-06-29T23:59:26.424Z,16.52
